Huvudsida
METAR-TAF:

METAR-TAF

Flygplatser :

Gurayat, Saudiarabien

latitud: 31-24N, longitud: 037-16E, höjd: 509 m

Aktuellt väderrapport

Denna rapport gjordes för 34 minuter sedan, klockan 03:00 UTC
Vind 2 kt från väst/nordväst
Temperatur 18°C
Fuktighet 56%
Tryck 1011 hPa
Sikt 10 km eller mer
Inga moln under 1 500 m eller inga cumulonimbus

METAR: OEGT 200300Z 30002KT CAVOK 18/09 Q1011 NOSIG

Tid: 06:34 (03:34 UTC)

Väderprognos

Denna rapport gjordes för 4 timmar och 34 minuter sedan, klockan 23:00 UTC
Prognos gäller från 20 kl. 00 UTC till 21 kl. 06 UTC
Vind 3 kt varierande vindriktning
Sikt: 7000 m
Klar himmel
Blir
från 20 kl. 06 UTC till 20 kl. 08 UTC
Vind 6 kt från väst/nordväst i byarna ända upp till 16 kt
Temporärt
från 20 kl. 06 UTC till 20 kl. 14 UTC
Sikt: 4000 m
utbrett stoft, högt damm drev

TAF: OEGT 192300Z 2000/2106 VRB03KT 7000 SKC BECMG 2006/2008 30006G16KT TEMPO 2006/2014 4000 DU BLDU

Aktuella väderrapporter och prognoser från 4000 flygplatser (METAR- och TAF-rapporter).

De tillgängliga stationerna syns som gula och röda prickar på kartan.

För musen över prickarna för att se namnen på stationerna.

Klicka sedan för att få väderrapporter och prognoser.

För att ändra kartan: Klicka på de gröna knapparna med ett svart kors på för att zooma in; den gröna knappen med ett streck på för att zooma ut; eller på de gröna pilarna för angränsande kartor.


METAR-TAF: